Accueil
METAR-TAF:

METAR-TAF

Aéroports :

Le Havre, France

Aéroport du Havre-Octeville

latitude: 49-31N, longitude: 000-04E, altitude: 100 m

Observation

Le bulletin a été fait il y a 15 minutes, à 01:30 UTC
Vent 10 kt de ouest/sud-ouest
Température 15°C
Humidité 72%
Pression 1022 hPa
Visibilité 10 km ou plus
pas de nuages en-dessous de 1500 mètres et pas de cumulonimbus.

METAR: LFOH 170130Z AUTO 25010KT CAVOK 15/10 Q1022

Heure: 03:45 (01:45 UTC)

Prévision

Le bulletin a été fait il y a 14 heures et 45 minutes, à 11:00 UTC
Prévision valable du 16 à 12 UTC au 17 à 12 UTC
Vent 12 kt de sud
Visibilité 10 km ou plus
pas de nuages en-dessous de 1500 mètres et pas de cumulonimbus.
Temporairement
du 16 à 12 UTC au 16 à 14 UTC
Vent 15 kt de sud avec des rafales jusqu'à 25 kt
Evoluant progressivement
du 16 à 16 UTC au 16 à 18 UTC
Vent 6 kt de ouest/sud-ouest

TAF: LFOH 161100Z 1612/1712 17012KT CAVOK TEMPO 1612/1614 17015G25KT BECMG 1616/1618 25006KT

Observations et prévisions météorologiques de plus de 4000 aéroports (messages METAR et TAF).

Les stations disponibles sont représentées par des disques jaunes et rouges sur la carte.

Passer la souris dessus pour voir le nom de la station.

Cliquer dessus pour voir les observations et prévisions météorologiques.

Pour changer de carte: cliquez sur les boutons verts avec une croix noire pour zoomer, sur le bouton vert avec un tiret pour effectuer un zoom arrière, ou sur les flèches vertes pour les cartes adjacentes.


METAR-TAF: